createdAt,value
2022-08-23T00:02:26.395Z,61619.38
2022-08-23T00:05:03.521Z,61794.34
2022-08-23T00:07:40.792Z,61991.69
2022-08-23T00:10:13.846Z,62207.38
2022-08-23T00:12:40.765Z,62142.28
2022-08-23T00:15:10.629Z,62492.28
2022-08-23T00:17:37.193Z,62374.25
2022-08-23T00:20:08.414Z,62604.19
2022-08-23T00:22:35.513Z,62703.91
2022-08-23T00:25:02.097Z,62805.69
2022-08-23T00:27:29.930Z,62311.16
2022-08-23T00:29:57.701Z,62408.84
2022-08-23T00:32:33.503Z,61291.81
2022-08-23T00:35:01.013Z,61291.81
2022-08-23T00:37:29.418Z,61749.56
2022-08-23T00:39:55.855Z,61678.38
2022-08-23T00:42:53.037Z,62512.63
2022-08-23T00:45:45.003Z,63005.13
2022-08-23T00:48:12.859Z,63178.13
2022-08-23T00:51:01.973Z,63562.81
2022-08-23T00:53:35.142Z,63347.06
2022-08-23T00:56:03.983Z,63233.06
2022-08-23T00:58:31.019Z,63941.44
2022-08-23T01:01:00.735Z,64130.78
2022-08-23T01:03:30.559Z,64615.31
2022-08-23T01:06:24.168Z,64804.69
2022-08-23T01:08:57.217Z,64808.75
2022-08-23T01:11:33.196Z,64953.31
2022-08-23T01:14:20.449Z,65012.38
2022-08-23T01:17:08.331Z,64892.25
2022-08-23T01:19:41.104Z,64949.25
2022-08-23T01:22:26.802Z,64871.88
2022-08-23T01:24:59.947Z,64886.13
2022-08-23T01:27:35.644Z,65053.09
2022-08-23T01:30:05.146Z,64998.13
2022-08-23T01:38:55.887Z,65458.34
2022-08-23T01:41:22.365Z,65511.28
2022-08-23T01:43:48.776Z,65590.72
2022-08-23T01:46:19.063Z,65509.25
2022-08-23T01:48:48.266Z,65602.94
2022-08-23T01:51:16.793Z,65415.56
2022-08-23T01:53:43.424Z,65482.78
2022-08-23T01:56:10.080Z,65478.72
2022-08-23T01:58:37.312Z,65497.03
2022-08-23T02:01:04.865Z,65307.66
2022-08-23T02:03:32.386Z,65474.63
2022-08-23T02:05:58.813Z,65403.34
2022-08-23T02:08:44.318Z,65126.41
2022-08-23T02:11:14.557Z,65057.16
2022-08-23T02:13:42.007Z,65067.34
2022-08-23T02:16:08.536Z,64994.03
2022-08-23T02:18:35.045Z,64759.88
2022-08-23T02:21:02.019Z,64886.13
2022-08-23T02:23:28.530Z,64867.81
2022-08-23T02:25:55.273Z,65024.59
2022-08-23T02:28:24.338Z,64902.41
2022-08-23T02:30:53.804Z,65112.16
2022-08-23T02:33:20.942Z,65093.81
2022-08-23T02:38:33.127Z,65252.66
2022-08-23T02:41:00.918Z,65116.22
2022-08-23T02:43:27.583Z,64996.09
2022-08-23T02:45:53.995Z,65187.50
2022-08-23T02:48:20.467Z,65069.38
2022-08-23T02:50:46.932Z,65226.19
2022-08-23T02:53:13.470Z,65065.31
2022-08-23T02:55:39.896Z,65012.38
2022-08-23T02:58:06.357Z,65057.16
2022-08-23T03:00:32.901Z,65112.16
2022-08-23T03:02:59.368Z,64963.50
2022-08-23T03:05:26.347Z,65089.75
2022-08-23T03:07:52.782Z,65106.03
2022-08-23T03:10:19.214Z,65163.06
2022-08-23T03:12:45.638Z,65346.34
2022-08-23T03:15:12.218Z,64908.53
2022-08-23T03:17:38.727Z,64590.88
2022-08-23T03:20:06.303Z,64739.53
2022-08-23T03:22:33.097Z,65085.69
2022-08-23T03:25:00.198Z,65362.63
2022-08-23T03:27:26.776Z,65187.50
2022-08-23T03:29:53.234Z,65203.78
2022-08-23T03:32:19.634Z,64983.88
2022-08-23T03:34:46.426Z,65688.47
2022-08-23T03:37:13.053Z,65464.44
2022-08-23T03:39:39.587Z,65488.88
2022-08-23T03:42:07.959Z,65892.13
2022-08-23T03:44:34.434Z,65248.59
2022-08-23T03:47:01.039Z,66006.19
2022-08-23T03:49:27.544Z,66315.78
2022-08-23T03:51:54.183Z,66163.03
2022-08-23T03:54:20.756Z,66926.91
2022-08-23T03:57:09.764Z,67028.78
2022-08-23T03:59:39.922Z,67022.69
2022-08-23T04:02:07.156Z,67053.22
2022-08-23T04:04:33.593Z,67220.28
2022-08-23T04:07:00.104Z,67426.06
2022-08-23T04:09:26.588Z,66814.88
2022-08-23T04:11:53.391Z,66635.59
2022-08-23T04:14:19.858Z,67179.56
2022-08-23T04:16:46.724Z,67466.81
2022-08-23T04:19:14.484Z,67466.81
2022-08-23T04:21:45.911Z,67607.41
2022-08-23T04:24:12.819Z,67770.44
2022-08-23T04:26:40.424Z,68023.13
2022-08-23T04:29:07.360Z,68175.94
2022-08-23T04:31:35.903Z,67835.63
2022-08-23T04:34:05.226Z,68218.75
2022-08-23T04:36:44.868Z,68387.91
2022-08-23T04:39:18.220Z,68269.69
2022-08-23T04:42:03.472Z,68573.34
2022-08-23T04:44:29.975Z,68603.94
2022-08-23T04:46:56.381Z,68742.53
2022-08-23T04:49:24.447Z,68658.97
2022-08-23T04:51:53.472Z,68573.34
2022-08-23T04:54:21.346Z,68591.69
2022-08-23T04:56:51.961Z,68493.88
2022-08-23T04:59:18.489Z,67941.59
2022-08-23T05:01:45.579Z,67978.28
2022-08-23T05:04:12.124Z,66515.41
2022-08-23T05:06:38.557Z,66238.41
2022-08-23T05:09:05.584Z,66873.97
2022-08-23T05:11:32.001Z,68063.88
2022-08-23T05:13:58.879Z,68334.91
2022-08-23T05:16:25.746Z,68885.19
2022-08-23T05:18:52.313Z,69076.78
2022-08-23T05:24:21.509Z,69358.09
2022-08-23T05:26:47.925Z,69655.72
2022-08-23T05:29:14.352Z,69804.56
2022-08-23T05:31:40.756Z,70000.28
2022-08-23T05:34:07.199Z,70187.84
2022-08-23T05:42:19.573Z,70191.91
2022-08-23T05:44:46.067Z,70512.03
2022-08-23T05:47:15.190Z,70603.81
2022-08-23T05:49:42.686Z,70550.78
2022-08-23T05:52:12.472Z,70940.28
2022-08-23T05:54:39.268Z,71117.69
2022-08-23T05:57:05.865Z,71040.19
2022-08-23T05:59:32.349Z,71152.38
2022-08-23T06:02:00.040Z,71158.47
2022-08-23T06:04:26.498Z,71517.44
2022-08-23T06:06:53.795Z,71525.59
2022-08-23T06:09:20.213Z,71352.22
2022-08-23T06:11:48.139Z,71831.53
2022-08-23T06:14:14.933Z,72210.97
2022-08-23T06:16:45.824Z,72317.03
2022-08-23T06:19:13.637Z,72227.28
2022-08-23T06:21:40.856Z,72280.31
2022-08-23T06:24:07.533Z,72047.75
2022-08-23T06:26:38.233Z,71933.53
2022-08-23T06:29:08.358Z,71778.50
2022-08-23T06:31:47.557Z,71631.66
2022-08-23T06:34:24.910Z,71615.34
2022-08-23T06:36:57.426Z,71450.13
2022-08-23T06:39:27.019Z,71235.97
2022-08-23T06:41:57.326Z,71213.56
2022-08-23T06:44:23.745Z,70981.06
2022-08-23T06:46:50.232Z,70917.84
2022-08-23T06:49:16.786Z,70750.63
2022-08-23T06:51:46.153Z,70648.66
2022-08-23T06:54:15.078Z,70385.63
2022-08-23T06:56:43.588Z,70265.31
2022-08-23T06:59:10.117Z,69902.41
2022-08-23T07:01:46.621Z,69751.53
2022-08-23T07:04:15.475Z,69725.03
2022-08-23T07:06:42.223Z,69535.44
2022-08-23T07:09:08.672Z,69637.38
2022-08-23T07:11:35.436Z,69612.91
2022-08-23T07:14:05.501Z,69502.84
2022-08-23T07:16:39.120Z,69419.25
2022-08-23T07:19:07.003Z,69082.91
2022-08-23T07:21:33.696Z,68891.31
2022-08-23T07:24:00.134Z,68608.00
2022-08-23T07:26:27.535Z,68740.47
2022-08-23T07:28:57.081Z,68730.28
2022-08-23T07:31:28.396Z,68838.31
2022-08-23T07:33:58.748Z,68748.63
2022-08-23T07:36:26.514Z,68748.63
2022-08-23T07:38:55.623Z,68404.19
2022-08-23T07:41:25.156Z,68357.31
2022-08-23T07:43:51.928Z,68086.28
2022-08-23T07:46:18.380Z,68200.41
2022-08-23T07:48:53.993Z,68345.09
2022-08-23T07:51:21.276Z,68096.47
2022-08-23T07:53:48.004Z,68265.63
2022-08-23T07:56:16.288Z,68406.25
2022-08-23T07:58:42.728Z,68265.63
2022-08-23T08:01:16.497Z,68363.44
2022-08-23T08:03:44.489Z,68465.34
2022-08-23T08:06:30.359Z,68854.63
2022-08-23T08:08:57.746Z,68603.94
2022-08-23T08:11:32.164Z,68701.75
2022-08-23T08:14:04.808Z,68846.47
2022-08-23T08:16:35.085Z,68826.09
2022-08-23T08:19:04.050Z,68638.56
2022-08-23T08:21:30.527Z,68813.84
2022-08-23T08:23:58.719Z,68758.81
2022-08-23T08:26:25.926Z,68932.06
2022-08-23T08:28:52.491Z,69127.75
2022-08-23T08:31:18.948Z,69725.03
2022-08-23T08:33:45.352Z,70200.06
2022-08-23T08:36:30.315Z,69623.09
2022-08-23T08:39:00.843Z,69955.41
2022-08-23T08:41:40.739Z,70399.91
2022-08-23T08:44:21.328Z,70159.31
2022-08-23T08:46:53.193Z,69641.47
2022-08-23T08:49:49.131Z,70505.94
2022-08-23T08:52:23.287Z,69778.03
2022-08-23T08:54:55.866Z,70179.69
2022-08-23T08:57:27.519Z,71596.97
2022-08-23T08:59:59.602Z,71209.47
2022-08-23T09:02:32.709Z,70793.44
2022-08-23T09:05:09.765Z,72359.88
2022-08-23T09:07:45.332Z,72092.63
2022-08-23T09:10:30.242Z,69441.69
2022-08-23T09:13:24.587Z,68391.97
2022-08-23T09:16:08.320Z,70879.09
2022-08-23T09:18:36.557Z,71058.56
2022-08-23T09:21:06.758Z,66865.81
2022-08-23T09:23:43.852Z,67277.34
2022-08-23T09:26:25.976Z,68214.66
2022-08-23T09:29:32.916Z,69804.56
2022-08-23T09:32:02.637Z,68589.66
2022-08-23T09:34:41.995Z,68047.56
2022-08-23T09:37:09.833Z,68614.13
2022-08-23T09:39:39.163Z,69641.47
2022-08-23T09:42:27.204Z,70057.34
2022-08-23T09:44:54.348Z,70556.91
2022-08-23T09:47:30.212Z,70116.47
2022-08-23T09:49:56.645Z,68320.63
2022-08-23T09:52:33.007Z,70799.56
2022-08-23T09:55:03.017Z,68646.72
2022-08-23T09:57:31.859Z,64405.63
2022-08-23T10:00:21.268Z,64493.16
2022-08-23T10:02:47.674Z,67252.91
2022-08-23T10:05:28.800Z,68271.72
2022-08-23T10:08:00.370Z,67729.69
2022-08-23T10:10:36.259Z,71138.09
2022-08-23T10:13:05.198Z,66668.19
2022-08-23T10:15:49.403Z,59196.97
2022-08-23T10:18:34.738Z,65572.38
2022-08-23T10:21:28.607Z,68718.06
2022-08-23T10:24:19.149Z,66317.84
2022-08-23T10:27:38.646Z,66755.78
2022-08-23T10:30:11.166Z,72949.47
2022-08-23T10:33:02.594Z,69437.59
2022-08-23T10:36:11.066Z,64242.75
2022-08-23T10:38:45.072Z,64668.25
2022-08-23T10:41:17.974Z,64513.53
2022-08-23T10:43:57.752Z,62518.72
2022-08-23T10:46:29.324Z,61479.00
2022-08-23T10:49:00.213Z,61127.03
2022-08-23T10:51:36.276Z,64470.75
2022-08-23T10:54:16.300Z,63060.06
2022-08-23T10:56:51.164Z,60640.88
2022-08-23T10:59:21.595Z,57965.00
2022-08-23T11:02:01.125Z,58749.69
2022-08-23T11:04:48.322Z,57725.16
2022-08-23T11:07:19.527Z,57656.03
2022-08-23T11:10:16.214Z,56331.06
2022-08-23T11:12:54.625Z,56485.50
2022-08-23T11:15:44.929Z,56087.25
2022-08-23T11:18:33.105Z,55473.75
2022-08-23T11:21:17.319Z,55262.47
2022-08-23T11:23:54.413Z,54383.03
2022-08-23T11:26:26.984Z,55380.28
2022-08-23T11:29:24.870Z,55355.91
2022-08-23T11:32:00.562Z,54671.44
2022-08-23T11:34:50.105Z,55193.41
2022-08-23T11:37:19.181Z,55924.72
2022-08-23T11:39:57.996Z,55386.38
2022-08-23T11:42:34.056Z,54736.41
2022-08-23T11:45:01.111Z,54748.59
2022-08-23T11:47:39.880Z,54348.50
2022-08-23T11:50:32.880Z,54330.22
2022-08-23T11:53:24.093Z,53702.78
2022-08-23T11:56:00.579Z,53532.22
2022-08-23T11:59:02.842Z,54632.84
2022-08-23T12:01:38.880Z,54823.75
2022-08-23T12:04:14.544Z,54714.06
2022-08-23T12:06:50.996Z,54376.94
2022-08-23T12:09:21.038Z,54356.63
2022-08-23T12:11:53.221Z,54716.09
2022-08-23T12:14:31.786Z,54419.59
2022-08-23T12:17:05.834Z,54045.94
2022-08-23T12:19:40.268Z,53690.59
2022-08-23T12:22:16.485Z,53231.72
2022-08-23T12:25:08.051Z,52973.91
2022-08-23T12:27:42.629Z,52791.19
2022-08-23T12:30:36.959Z,53530.19
2022-08-23T12:33:30.941Z,53515.97
2022-08-23T12:36:15.479Z,53881.47
2022-08-23T12:38:57.176Z,54238.84
2022-08-23T12:41:30.596Z,54267.28
2022-08-23T12:44:07.984Z,54742.50
2022-08-23T12:46:39.377Z,53942.38
2022-08-23T12:52:08.291Z,53619.53
2022-08-23T12:54:41.685Z,53674.34
2022-08-23T12:57:13.849Z,54305.88
2022-08-23T13:05:33.624Z,54287.59
2022-08-23T13:08:03.900Z,54368.81
2022-08-23T13:10:31.029Z,53968.78
2022-08-23T13:12:57.995Z,54188.09
2022-08-23T13:15:55.879Z,53972.84
2022-08-23T13:18:32.041Z,54019.53
2022-08-23T13:27:21.344Z,52874.41
2022-08-23T13:30:00.812Z,52515.13
2022-08-23T13:32:32.670Z,52557.75
2022-08-23T13:35:26.388Z,52740.44
2022-08-23T13:37:56.853Z,52772.91
2022-08-23T13:40:31.297Z,52760.75
2022-08-23T13:43:04.482Z,52943.44
2022-08-23T13:45:34.194Z,53355.56
2022-08-23T13:48:09.140Z,53331.22
2022-08-23T13:50:37.145Z,52460.31
2022-08-23T13:58:57.950Z,53012.47
2022-08-23T14:01:25.160Z,53049.00
2022-08-23T14:03:51.829Z,53270.31
2022-08-23T14:06:18.319Z,53503.78
2022-08-23T14:08:44.757Z,53779.94
2022-08-23T14:11:15.746Z,53777.91
2022-08-23T14:13:46.464Z,53987.03
2022-08-23T14:16:39.881Z,53848.97
2022-08-23T14:19:54.112Z,53463.19
2022-08-23T14:21:55.607Z,52494.81
2022-08-23T14:24:22.212Z,52645.03
2022-08-23T14:26:51.647Z,52979.97
2022-08-23T14:29:23.072Z,53296.69
2022-08-23T14:31:52.019Z,53053.06
2022-08-23T14:34:19.794Z,52545.56
2022-08-23T14:39:33.615Z,52754.66
2022-08-23T14:42:00.329Z,52667.38
2022-08-23T14:44:31.574Z,52425.81
2022-08-23T14:47:00.031Z,53276.41
2022-08-23T14:49:26.454Z,53477.41
2022-08-23T14:51:53.668Z,53371.81
2022-08-23T14:54:23.254Z,53355.56
2022-08-23T14:56:50.314Z,53751.50
2022-08-23T15:02:36.495Z,53926.13
2022-08-23T15:14:58.495Z,55095.91
2022-08-23T15:17:30.348Z,55766.28
2022-08-23T15:19:57.874Z,55725.63
2022-08-23T15:22:24.318Z,55628.13
2022-08-23T15:24:52.712Z,55752.03
2022-08-23T15:27:19.811Z,56233.56
2022-08-23T15:29:46.859Z,56818.75
2022-08-23T15:32:13.273Z,56830.94
2022-08-23T15:34:45.621Z,56134.00
2022-08-23T15:37:13.671Z,54624.72
2022-08-23T15:39:41.557Z,54547.53
2022-08-23T15:42:08.026Z,54273.38
2022-08-23T15:44:34.466Z,54413.50
2022-08-23T15:47:13.959Z,55091.84
2022-08-23T15:49:40.391Z,56188.84
2022-08-23T15:52:06.904Z,56209.16
2022-08-23T15:54:33.387Z,56851.25
2022-08-23T15:56:59.955Z,57715.00
2022-08-23T15:59:26.701Z,58074.75
2022-08-23T16:01:53.104Z,58432.53
2022-08-23T16:04:19.496Z,58936.72
2022-08-23T16:33:40.468Z,57603.19
2022-08-23T16:36:08.133Z,58097.13
2022-08-23T16:38:35.566Z,58505.72
2022-08-23T16:41:02.030Z,59062.78
2022-08-23T16:43:28.438Z,59835.47
2022-08-23T16:45:54.893Z,59440.97
2022-08-23T16:48:21.520Z,59595.53
2022-08-23T16:50:48.841Z,60006.31
2022-08-23T16:53:15.755Z,60846.31
2022-08-23T16:55:42.236Z,61422.03
2022-08-23T16:58:08.827Z,60901.25
2022-08-23T17:00:35.960Z,61562.41
2022-08-23T17:03:04.883Z,60893.09
2022-08-23T17:05:32.032Z,60787.34
2022-08-23T17:07:58.806Z,61505.44
2022-08-23T17:10:25.723Z,60085.63
2022-08-23T17:12:54.696Z,59355.56
2022-08-23T17:15:26.274Z,59522.31
2022-08-23T17:17:53.229Z,59766.34
2022-08-23T17:20:22.093Z,61143.31
2022-08-23T17:22:49.501Z,61450.50
2022-08-23T17:25:17.364Z,61896.06
2022-08-23T17:27:46.333Z,62209.41
2022-08-23T17:30:15.052Z,62528.91
2022-08-23T17:32:43.451Z,65138.63
2022-08-23T17:35:14.638Z,66321.91
2022-08-23T17:37:41.919Z,67126.56
2022-08-23T17:40:11.274Z,65924.72
2022-08-23T17:42:39.537Z,66224.13
2022-08-23T17:45:07.521Z,66890.25
2022-08-23T17:47:34.034Z,66947.28
2022-08-23T17:50:03.344Z,67138.81
2022-08-23T17:52:30.590Z,67491.28
2022-08-23T17:54:57.669Z,66853.59
2022-08-23T17:57:24.789Z,65993.97
2022-08-23T17:59:52.347Z,66038.78
2022-08-23T18:02:20.630Z,65281.16
2022-08-23T18:04:47.756Z,65488.88
2022-08-23T18:07:14.515Z,65869.72
2022-08-23T18:09:48.359Z,64996.09
2022-08-23T18:12:18.215Z,64849.47
2022-08-23T18:14:44.632Z,64466.69
2022-08-23T18:17:11.056Z,64818.94
2022-08-23T18:19:37.492Z,65602.94
2022-08-23T18:22:04.225Z,66959.53
2022-08-23T18:24:31.767Z,69292.88
2022-08-23T18:27:21.247Z,69419.25
2022-08-23T18:29:51.530Z,71488.88
2022-08-23T18:32:18.773Z,72488.41
2022-08-23T18:34:45.219Z,74067.72
2022-08-23T18:37:11.685Z,74067.72
2022-08-23T18:39:38.092Z,75896.78
2022-08-23T18:42:05.720Z,76942.34
2022-08-23T18:44:32.968Z,77203.78
2022-08-23T18:47:02.037Z,78511.19
2022-08-23T18:49:28.948Z,80865.56
2022-08-23T18:51:56.052Z,82174.19
2022-08-23T18:54:22.484Z,82174.19
2022-08-23T18:56:48.897Z,86102.53
2022-08-23T18:59:15.309Z,85840.53
2022-08-23T19:01:42.736Z,86888.66
2022-08-23T19:04:11.691Z,87937.06
2022-08-23T19:06:39.035Z,88461.38
2022-08-23T19:09:08.341Z,89247.97
2022-08-23T19:11:37.860Z,88985.75
2022-08-23T19:14:05.977Z,88985.75
2022-08-23T19:16:33.274Z,88461.38
2022-08-23T19:19:00.722Z,88723.56
2022-08-23T19:21:27.810Z,89247.97
2022-08-23T19:23:56.871Z,89510.22
2022-08-23T19:26:31.619Z,90559.31
2022-08-23T19:29:03.519Z,91083.97
2022-08-23T19:31:35.295Z,91608.69
2022-08-23T19:34:05.437Z,91871.06
2022-08-23T19:36:45.858Z,91871.06
2022-08-23T19:39:14.770Z,91346.31
2022-08-23T19:41:41.910Z,91871.06
2022-08-23T19:44:08.412Z,91608.69
2022-08-23T19:46:36.445Z,91871.06
2022-08-23T19:49:02.902Z,91871.06
2022-08-23T19:51:33.563Z,92658.31
2022-08-23T19:54:11.305Z,92395.88
2022-08-23T19:56:48.276Z,92920.78
2022-08-23T19:59:19.544Z,93445.72
2022-08-23T20:01:47.961Z,93708.25
2022-08-23T20:04:14.446Z,93445.72
2022-08-23T20:06:40.959Z,93445.72
2022-08-23T20:09:08.356Z,93708.25
2022-08-23T20:11:34.985Z,94233.31
2022-08-23T20:14:01.749Z,94495.84
2022-08-23T20:16:29.198Z,95021.03
2022-08-23T20:18:56.380Z,94758.44
2022-08-23T20:21:24.165Z,95021.03
2022-08-23T20:24:04.159Z,95021.03
2022-08-23T20:26:36.045Z,96334.22
2022-08-23T20:29:04.482Z,96596.91
2022-08-23T20:31:35.920Z,96859.63
2022-08-23T20:34:04.601Z,96859.63
2022-08-23T20:36:31.302Z,97122.34
2022-08-23T20:39:00.007Z,97647.84
2022-08-23T20:41:32.652Z,97647.84
2022-08-23T20:44:00.464Z,98173.41
2022-08-23T20:46:27.189Z,98436.22
2022-08-23T20:48:54.256Z,98699.06
2022-08-23T20:51:21.050Z,98436.22
2022-08-23T20:53:47.612Z,98436.22
2022-08-23T20:56:14.344Z,99224.78
2022-08-23T20:58:40.774Z,99224.78
2022-08-23T21:01:09.219Z,99224.78
2022-08-23T21:03:37.952Z,99750.53
2022-08-23T21:06:29.471Z,99750.53
2022-08-23T21:08:58.832Z,100013.47
2022-08-23T21:11:27.496Z,100276.41
2022-08-23T21:13:55.138Z,100539.34
2022-08-23T21:16:22.088Z,100802.31
2022-08-23T21:18:49.227Z,100539.34
2022-08-23T21:21:19.727Z,100802.31
2022-08-23T21:23:48.113Z,101065.28
2022-08-23T21:26:14.567Z,101591.31
2022-08-23T21:28:40.985Z,101591.31
2022-08-23T21:31:16.315Z,101591.31
2022-08-23T21:33:43.599Z,101854.34
2022-08-23T21:36:11.541Z,102117.38
2022-08-23T21:38:38.644Z,102380.44
2022-08-23T21:41:08.610Z,102643.53
2022-08-23T21:43:37.228Z,102906.63
2022-08-23T21:46:05.437Z,102643.53
2022-08-23T21:48:32.157Z,102643.53
2022-08-23T21:50:59.666Z,102906.63
2022-08-23T21:53:26.150Z,102906.63
2022-08-23T21:55:52.976Z,102906.63
2022-08-23T21:58:19.404Z,103169.75
2022-08-23T22:00:45.910Z,103169.75
2022-08-23T22:03:12.382Z,103432.91
2022-08-23T22:05:44.039Z,103432.91
2022-08-23T22:08:14.324Z,103432.91
2022-08-23T22:10:44.772Z,103432.91
2022-08-23T22:13:23.205Z,103432.91
2022-08-23T22:15:49.679Z,103959.22
2022-08-23T22:18:16.106Z,104222.41
2022-08-23T22:20:44.401Z,104222.41
2022-08-23T22:23:11.354Z,103959.22
2022-08-23T22:25:38.017Z,104222.41
2022-08-23T22:28:04.541Z,104222.41
2022-08-23T22:30:31.191Z,104222.41
2022-08-23T22:32:57.693Z,104485.59
2022-08-23T22:35:24.114Z,104485.59
2022-08-23T22:38:10.580Z,104485.59
2022-08-23T22:40:36.945Z,104485.59
2022-08-23T22:43:03.803Z,104748.81
2022-08-23T22:45:30.215Z,104748.81
2022-08-23T22:47:56.710Z,104748.81
2022-08-23T22:50:23.192Z,104748.81
2022-08-23T22:52:50.843Z,105012.06
2022-08-23T22:55:17.475Z,105012.06
2022-08-23T22:57:43.883Z,105012.06
2022-08-23T23:00:10.868Z,104748.81
2022-08-23T23:20:36.850Z,96867.84
2022-08-23T23:23:03.784Z,95197.44
2022-08-23T23:25:30.189Z,94573.81
2022-08-23T23:28:02.307Z,93076.63
2022-08-23T23:30:29.438Z,91979.72
2022-08-23T23:32:56.959Z,91168.00
2022-08-23T23:35:23.674Z,90112.59
2022-08-23T23:37:50.546Z,89188.56
2022-08-23T23:40:17.273Z,88453.19
2022-08-23T23:42:44.053Z,87670.84
2022-08-23T23:45:11.343Z,87259.25
2022-08-23T23:47:38.405Z,86047.25
2022-08-23T23:50:06.642Z,85371.81
2022-08-23T23:52:33.431Z,84759.91
2022-08-23T23:55:03.116Z,84092.88
2022-08-23T23:57:30.495Z,83753.25
2022-08-23T23:59:57.081Z,83176.34
